Agricola, Mississippi
Current Conditions -  °F | °C
As of 1:56 AM on Tuesday 27 Jan 2015 (Local Time) from KMOB Reporting Station
Clear Clear  
Wind Chill: 39°   Ceiling: Unl
Heat Index: 42°   Visibility: 10mi
Dew Point: 32°   Wind: 5mph
Humidity: 67%   Direction: 260°W
Pressure: 30.05"   Gusts: NA
Location:  30.8443°N, 88.5703°W
Report Text: KMOB 270756Z AUTO 26004KT 10SM CLR 06/00 A3005 RMK AO2 SLP175 T00560000
Loading
Personal Weather Stations






























Interactive Weather Map New forecast layout! Learn more

10-Day Weather Forecast

Advertisements
Track Severe Weather on mobile